Time;durP1;ratioP1;P1;durP2;ratioP2;P2;SDS_P1;SDS_P2;PMS_P1;PMS_P2;Temp;Humidity;BMP_temperature;BMP_pressure;BME280_temperature;BME280_humidity;BME280_pressure;Samples;Min_cycle;Max_cycle;Signal;HPM_P1;HPM_P2
2023/07/30 00:00:59;;;;;;;2.90;2.47;;;17.30;99.90;;;;;;5068271;28;20424;-72
2023/07/30 00:03:26;;;;;;;3.50;2.70;;;17.30;99.90;;;;;;5057673;28;20434;-71
2023/07/30 00:05:54;;;;;;;4.10;3.35;;;17.30;99.90;;;;;;5058141;28;20794;-72
2023/07/30 00:08:21;;;;;;;3.40;2.72;;;17.20;99.90;;;;;;5058331;28;20419;-72
2023/07/30 00:10:49;;;;;;;2.80;2.50;;;17.20;99.90;;;;;;5057894;28;20471;-72
2023/07/30 00:13:16;;;;;;;2.63;2.20;;;17.20;99.90;;;;;;5063391;28;20744;-71
2023/07/30 00:15:43;;;;;;;3.63;2.65;;;17.20;99.90;;;;;;5053841;28;20423;-71
2023/07/30 00:18:09;;;;;;;3.50;2.60;;;17.20;99.90;;;;;;5054098;28;20419;-71
2023/07/30 00:20:36;;;;;;;3.80;2.50;;;17.20;99.90;;;;;;5056795;28;20454;-70
2023/07/30 00:23:03;;;;;;;4.45;2.97;;;17.20;99.90;;;;;;5064725;28;20447;-70
2023/07/30 00:25:30;;;;;;;4.53;2.70;;;17.20;99.90;;;;;;5050008;28;20420;-70
2023/07/30 00:27:58;;;;;;;4.30;3.00;;;17.10;99.90;;;;;;5052083;28;20512;-71
2023/07/30 00:30:25;;;;;;;3.15;2.50;;;17.10;99.90;;;;;;5054904;28;20421;-70
2023/07/30 00:32:51;;;;;;;3.08;2.60;;;17.10;99.90;;;;;;5058797;28;20420;-70
2023/07/30 00:35:18;;;;;;;3.30;2.40;;;17.10;99.90;;;;;;5057705;28;20775;-70
2023/07/30 00:37:45;;;;;;;2.85;2.20;;;17.10;99.90;;;;;;5056483;28;20426;-71
2023/07/30 00:40:12;;;;;;;3.72;2.30;;;17.10;99.90;;;;;;5061626;28;20771;-72
2023/07/30 00:42:39;;;;;;;3.30;2.45;;;17.10;99.90;;;;;;5052425;28;20518;-71
2023/07/30 00:45:09;;;;;;;3.60;2.40;;;17.10;99.90;;;;;;5059943;28;20822;-72
2023/07/30 00:47:36;;;;;;;3.58;2.80;;;17.00;99.90;;;;;;5054216;28;20427;-72
2023/07/30 00:50:04;;;;;;;4.50;2.60;;;17.00;99.90;;;;;;5064968;28;20443;-70
2023/07/30 00:52:31;;;;;;;2.83;2.47;;;17.00;99.90;;;;;;5072702;28;20751;-71
2023/07/30 00:54:58;;;;;;;2.88;2.40;;;17.00;99.90;;;;;;5069204;28;20494;-70
2023/07/30 00:57:25;;;;;;;2.92;2.67;;;17.00;99.90;;;;;;5066005;28;20872;-70
2023/07/30 00:59:53;;;;;;;4.38;2.60;;;16.90;99.90;;;;;;5069434;28;20442;-70
2023/07/30 01:02:22;;;;;;;4.40;2.85;;;16.90;99.90;;;;;;5063997;28;20438;-70
2023/07/30 01:04:49;;;;;;;3.72;2.70;;;16.90;99.90;;;;;;5058736;28;20825;-71
2023/07/30 01:07:16;;;;;;;3.42;2.70;;;16.90;99.90;;;;;;5055115;28;20433;-70
2023/07/30 01:09:43;;;;;;;2.72;2.53;;;16.90;99.90;;;;;;5056289;28;20771;-70
2023/07/30 01:12:10;;;;;;;3.73;2.80;;;16.80;99.90;;;;;;5056113;28;20417;-70
2023/07/30 01:14:38;;;;;;;3.30;2.60;;;16.90;99.90;;;;;;5049796;28;20427;-70
2023/07/30 01:17:05;;;;;;;3.20;2.90;;;16.90;99.90;;;;;;5051554;28;20423;-70
2023/07/30 01:19:33;;;;;;;3.20;2.90;;;17.00;99.90;;;;;;5063282;28;20464;-70
2023/07/30 01:22:01;;;;;;;3.90;2.50;;;17.00;99.90;;;;;;5059181;28;20984;-71
2023/07/30 01:24:28;;;;;;;2.70;2.50;;;17.00;99.90;;;;;;5058222;28;20446;-70
2023/07/30 01:26:59;;;;;;;3.80;3.00;;;17.00;99.90;;;;;;5057628;28;20418;-70
2023/07/30 01:29:39;;;;;;;3.47;2.40;;;17.00;99.90;;;;;;5048761;28;20509;-70
2023/07/30 01:32:08;;;;;;;3.03;2.33;;;17.10;99.90;;;;;;5058746;28;20407;-70
2023/07/30 01:34:36;;;;;;;3.97;2.40;;;17.10;99.90;;;;;;5053445;28;20431;-70
2023/07/30 01:37:06;;;;;;;3.70;2.60;;;17.10;99.90;;;;;;5055395;28;20451;-70
2023/07/30 01:39:34;;;;;;;2.70;2.33;;;17.10;99.90;;;;;;5055109;28;20775;-70
2023/07/30 01:42:01;;;;;;;3.35;2.50;;;17.10;99.90;;;;;;5069762;28;20416;-70
2023/07/30 01:44:27;;;;;;;3.30;2.30;;;17.20;99.90;;;;;;5052408;28;20425;-70
2023/07/30 01:46:54;;;;;;;3.22;2.20;;;17.20;99.90;;;;;;5056737;28;20429;-70
2023/07/30 01:49:21;;;;;;;3.25;2.03;;;17.20;99.90;;;;;;5052983;28;20783;-72
2023/07/30 01:51:48;;;;;;;3.03;2.10;;;17.20;99.90;;;;;;5054653;28;20500;-71
2023/07/30 01:54:16;;;;;;;2.60;2.10;;;17.20;99.90;;;;;;5052201;28;20416;-71
2023/07/30 01:56:42;;;;;;;3.80;2.20;;;17.20;99.90;;;;;;5058560;28;20489;-71
2023/07/30 01:59:09;;;;;;;3.78;2.45;;;17.30;99.90;;;;;;5047098;28;20418;-69
2023/07/30 02:01:36;;;;;;;2.97;2.10;;;17.30;99.90;;;;;;5054015;28;20895;-70
2023/07/30 02:04:02;;;;;;;3.15;2.10;;;17.30;99.90;;;;;;5051618;28;20421;-72
2023/07/30 02:06:29;;;;;;;4.20;2.80;;;17.30;99.90;;;;;;5053363;28;20417;-70
2023/07/30 02:08:56;;;;;;;3.67;2.30;;;17.30;99.90;;;;;;5052625;28;20505;-71
2023/07/30 02:11:24;;;;;;;3.80;2.30;;;17.30;99.90;;;;;;5051542;28;20429;-71
2023/07/30 02:13:50;;;;;;;5.43;2.60;;;17.30;99.90;;;;;;5057040;28;20423;-72
2023/07/30 02:16:17;;;;;;;3.67;2.30;;;17.40;99.90;;;;;;5059496;28;20454;-72
2023/07/30 02:18:44;;;;;;;4.38;2.65;;;17.30;99.90;;;;;;5055569;28;20420;-72
2023/07/30 02:21:11;;;;;;;2.10;1.80;;;17.40;99.90;;;;;;5061541;28;20415;-72
2023/07/30 02:23:37;;;;;;;3.63;2.10;;;17.40;99.90;;;;;;5059412;28;20421;-72
2023/07/30 02:26:04;;;;;;;5.30;2.30;;;17.40;99.90;;;;;;5053503;28;20412;-72
2023/07/30 02:28:32;;;;;;;3.80;2.10;;;17.40;99.90;;;;;;5054447;28;20435;-72
2023/07/30 02:30:59;;;;;;;3.20;2.22;;;17.40;99.90;;;;;;5061249;28;20427;-72
2023/07/30 02:33:25;;;;;;;3.10;2.30;;;17.40;99.90;;;;;;5047064;28;20440;-71
2023/07/30 02:35:52;;;;;;;5.30;2.53;;;17.40;99.90;;;;;;5056264;28;20431;-70
2023/07/30 02:38:19;;;;;;;3.47;2.05;;;17.30;99.90;;;;;;5048604;28;20415;-72
2023/07/30 02:40:45;;;;;;;3.60;2.10;;;17.30;99.90;;;;;;5048859;28;20926;-71
2023/07/30 02:43:12;;;;;;;3.70;2.00;;;17.30;99.90;;;;;;5049347;28;20416;-69
2023/07/30 02:45:40;;;;;;;4.00;2.10;;;17.40;99.90;;;;;;5058240;28;20432;-72
2023/07/30 02:48:07;;;;;;;4.00;2.47;;;17.40;99.90;;;;;;5056556;28;20432;-72
2023/07/30 02:50:34;;;;;;;4.32;2.10;;;17.40;99.90;;;;;;5058574;28;20770;-71
2023/07/30 02:53:00;;;;;;;3.78;1.90;;;17.40;99.90;;;;;;5060555;28;20409;-70
2023/07/30 02:55:27;;;;;;;4.20;2.20;;;17.30;99.90;;;;;;5060248;28;20640;-69
2023/07/30 02:57:54;;;;;;;6.93;2.50;;;17.30;99.80;;;;;;5061758;28;20405;-70
2023/07/30 03:00:21;;;;;;;3.95;1.90;;;17.30;99.90;;;;;;5062186;28;20467;-71
2023/07/30 03:02:49;;;;;;;4.35;2.30;;;17.30;99.90;;;;;;5061456;28;20511;-71
2023/07/30 03:05:16;;;;;;;3.72;2.20;;;17.20;99.90;;;;;;5057731;28;20492;-71
2023/07/30 03:07:42;;;;;;;4.07;2.40;;;17.30;99.90;;;;;;5055293;28;20435;-71
2023/07/30 03:10:10;;;;;;;4.13;2.70;;;17.20;99.90;;;;;;5056827;28;20422;-69
2023/07/30 03:12:37;;;;;;;4.55;2.30;;;17.30;99.90;;;;;;5054325;28;20427;-70
2023/07/30 03:15:04;;;;;;;4.60;2.10;;;17.30;99.90;;;;;;5056023;28;20466;-70
2023/07/30 03:17:31;;;;;;;3.83;2.20;;;17.20;99.90;;;;;;5057939;28;20413;-70
2023/07/30 03:19:59;;;;;;;5.13;2.40;;;17.20;99.90;;;;;;5065486;28;20519;-70
2023/07/30 03:22:26;;;;;;;3.58;2.40;;;17.20;99.90;;;;;;5056836;28;20421;-70
2023/07/30 03:24:52;;;;;;;3.97;2.63;;;17.20;99.90;;;;;;5060488;28;20493;-70
2023/07/30 03:27:19;;;;;;;4.22;2.22;;;17.20;99.90;;;;;;5064441;28;20451;-70
2023/07/30 03:29:46;;;;;;;5.82;2.50;;;17.20;99.90;;;;;;5058664;28;20438;-70
2023/07/30 03:32:13;;;;;;;4.20;2.53;;;17.20;99.90;;;;;;5061364;28;20419;-70
2023/07/30 03:34:39;;;;;;;4.88;3.00;;;17.20;99.90;;;;;;5056505;28;20407;-70
2023/07/30 03:37:07;;;;;;;4.90;2.40;;;17.20;99.90;;;;;;5061439;28;20416;-70
2023/07/30 03:39:34;;;;;;;3.50;2.50;;;17.20;99.90;;;;;;5053152;28;20543;-70
2023/07/30 03:42:01;;;;;;;4.78;2.92;;;17.20;99.90;;;;;;5056923;28;20442;-70
2023/07/30 03:44:28;;;;;;;4.75;2.60;;;17.20;99.90;;;;;;5057139;28;20515;-71
2023/07/30 03:46:54;;;;;;;4.68;2.60;;;17.20;99.90;;;;;;5054011;28;20528;-70
2023/07/30 03:49:21;;;;;;;3.50;2.50;;;17.10;99.90;;;;;;5053275;28;20900;-70
2023/07/30 03:51:48;;;;;;;4.07;2.55;;;17.10;99.90;;;;;;5059655;28;20442;-70
2023/07/30 03:54:16;;;;;;;4.20;2.63;;;17.10;99.90;;;;;;5069142;28;20414;-70
2023/07/30 03:56:43;;;;;;;5.25;2.50;;;17.10;99.90;;;;;;5054314;28;20435;-69
2023/07/30 03:59:10;;;;;;;8.93;2.80;;;17.00;99.90;;;;;;5056160;28;20426;-70
2023/07/30 04:01:36;;;;;;;4.40;2.30;;;17.00;99.90;;;;;;5064459;28;20438;-70
2023/07/30 04:04:03;;;;;;;5.32;2.58;;;17.00;99.90;;;;;;5058863;28;20436;-70
2023/07/30 04:06:30;;;;;;;3.40;2.30;;;17.00;99.90;;;;;;5056268;28;20419;-70
2023/07/30 04:08:57;;;;;;;4.10;2.40;;;17.00;99.90;;;;;;5055152;28;20432;-69
2023/07/30 04:11:25;;;;;;;4.00;2.60;;;17.00;99.90;;;;;;5062379;28;20456;-70
2023/07/30 04:13:51;;;;;;;3.90;2.50;;;17.00;99.90;;;;;;5054045;28;20433;-70
2023/07/30 04:16:18;;;;;;;5.50;2.72;;;17.00;99.90;;;;;;5062094;28;20419;-70
2023/07/30 04:18:45;;;;;;;6.30;2.75;;;16.90;99.90;;;;;;5051877;28;20916;-70
2023/07/30 04:21:11;;;;;;;3.50;2.30;;;17.00;99.90;;;;;;5065695;28;20442;-70
2023/07/30 04:23:38;;;;;;;3.50;2.30;;;17.00;99.90;;;;;;5056583;28;20823;-70
2023/07/30 04:26:05;;;;;;;5.07;2.90;;;17.00;99.90;;;;;;5054377;28;20437;-69
2023/07/30 04:28:33;;;;;;;4.33;2.50;;;17.00;99.90;;;;;;5060216;28;20942;-70
2023/07/30 04:30:59;;;;;;;4.88;2.70;;;17.00;99.90;;;;;;5056865;28;20522;-70
2023/07/30 04:33:27;;;;;;;4.93;2.50;;;17.00;99.90;;;;;;5059130;28;20469;-70
2023/07/30 04:35:53;;;;;;;4.70;2.40;;;17.00;99.90;;;;;;5052129;28;20557;-70
2023/07/30 04:38:23;;;;;;;4.85;2.30;;;17.00;99.90;;;;;;5057115;28;20430;-71
2023/07/30 04:40:50;;;;;;;4.90;2.50;;;17.00;99.90;;;;;;5064047;28;20674;-70
2023/07/30 04:43:17;;;;;;;5.30;2.37;;;17.00;99.50;;;;;;5053852;28;20433;-69
2023/07/30 04:45:45;;;;;;;3.67;2.25;;;16.90;99.20;;;;;;5049424;28;20465;-69
2023/07/30 04:48:12;;;;;;;3.60;2.03;;;16.90;98.80;;;;;;5057196;28;20436;-69
2023/07/30 04:50:41;;;;;;;4.38;2.25;;;16.90;98.80;;;;;;5056785;28;20423;-69
2023/07/30 04:53:08;;;;;;;4.40;1.80;;;17.00;98.10;;;;;;5056801;28;20457;-70
2023/07/30 04:55:35;;;;;;;4.38;2.08;;;16.90;96.70;;;;;;5059903;28;20439;-70
2023/07/30 04:58:02;;;;;;;4.80;2.20;;;16.90;96.40;;;;;;5060431;28;20438;-70
2023/07/30 05:00:29;;;;;;;4.55;2.03;;;16.90;96.20;;;;;;5053788;28;20477;-70
2023/07/30 05:02:57;;;;;;;4.70;1.90;;;16.80;96.50;;;;;;5054498;28;20530;-70
2023/07/30 05:05:23;;;;;;;4.82;2.30;;;16.80;96.60;;;;;;5049139;28;20574;-70
2023/07/30 05:07:50;;;;;;;5.38;1.90;;;16.90;97.00;;;;;;5067633;28;20439;-70
2023/07/30 05:10:17;;;;;;;4.82;1.60;;;16.90;97.10;;;;;;5053213;28;20490;-69
2023/07/30 05:12:43;;;;;;;5.65;1.70;;;17.00;97.10;;;;;;5054953;28;20531;-70
2023/07/30 05:15:10;;;;;;;3.92;1.80;;;17.00;96.60;;;;;;5055554;28;20894;-70
2023/07/30 05:17:37;;;;;;;3.85;2.28;;;16.90;96.40;;;;;;5061320;28;20419;-70
2023/07/30 05:20:07;;;;;;;2.92;1.80;;;17.00;96.70;;;;;;5058449;28;20428;-70
2023/07/30 05:22:33;;;;;;;4.80;2.05;;;16.90;96.10;;;;;;5055088;28;20778;-70
2023/07/30 05:25:00;;;;;;;4.30;2.40;;;17.00;96.00;;;;;;5048038;28;20417;-70
2023/07/30 05:27:28;;;;;;;4.45;1.80;;;16.90;95.50;;;;;;5059570;28;20419;-69
2023/07/30 05:29:55;;;;;;;3.97;1.90;;;16.90;95.70;;;;;;5067331;28;20446;-69
2023/07/30 05:32:22;;;;;;;3.70;1.83;;;16.90;95.70;;;;;;5060542;28;20480;-70
2023/07/30 05:34:49;;;;;;;3.72;1.70;;;16.90;96.00;;;;;;5052695;28;20432;-69
2023/07/30 05:37:16;;;;;;;4.57;1.75;;;16.90;95.40;;;;;;5063182;28;20423;-69
2023/07/30 05:39:43;;;;;;;4.75;1.88;;;17.00;95.60;;;;;;5047459;28;20433;-70
2023/07/30 05:42:09;;;;;;;3.88;1.70;;;17.00;95.80;;;;;;5047407;28;20409;-69
2023/07/30 05:44:36;;;;;;;3.33;1.60;;;17.00;95.60;;;;;;5078065;22;21599;-67
2023/07/30 05:47:03;;;;;;;3.67;1.80;;;17.10;96.30;;;;;;5041160;28;20440;-69
2023/07/30 05:49:30;;;;;;;3.72;1.90;;;17.10;95.30;;;;;;5047035;28;20433;-67
2023/07/30 05:51:57;;;;;;;4.47;2.20;;;17.10;95.50;;;;;;5046263;28;20433;-67
2023/07/30 05:54:25;;;;;;;6.65;2.45;;;17.00;95.50;;;;;;5052655;28;20424;-67
2023/07/30 05:56:51;;;;;;;6.93;2.60;;;17.10;95.40;;;;;;5047759;28;20417;-67
2023/07/30 05:59:18;;;;;;;5.53;1.80;;;17.00;95.30;;;;;;5046790;28;20868;-67
2023/07/30 06:01:45;;;;;;;4.00;1.92;;;17.00;95.40;;;;;;5048048;28;20425;-67
2023/07/30 06:04:12;;;;;;;3.95;1.80;;;17.00;95.20;;;;;;5045799;28;20691;-67
2023/07/30 06:06:38;;;;;;;3.63;2.15;;;16.90;95.40;;;;;;5046150;28;20433;-68
2023/07/30 06:09:05;;;;;;;4.43;1.60;;;17.00;95.70;;;;;;5047316;28;20796;-68
2023/07/30 06:11:33;;;;;;;4.30;2.20;;;17.00;96.10;;;;;;5047114;28;20421;-68
2023/07/30 06:14:00;;;;;;;3.75;2.10;;;17.00;96.00;;;;;;5046642;28;20444;-68
2023/07/30 06:16:27;;;;;;;3.95;1.95;;;17.00;96.00;;;;;;5051204;28;20875;-68
2023/07/30 06:18:54;;;;;;;4.57;2.20;;;17.10;95.70;;;;;;5046861;28;20413;-68
2023/07/30 06:21:20;;;;;;;4.05;1.90;;;17.10;95.70;;;;;;5050403;28;20413;-68
2023/07/30 06:23:47;;;;;;;6.15;1.80;;;17.10;96.10;;;;;;5051259;28;20423;-69
2023/07/30 06:26:14;;;;;;;3.90;1.73;;;17.10;95.50;;;;;;5049322;28;20945;-68
2023/07/30 06:28:42;;;;;;;3.28;1.75;;;17.10;95.70;;;;;;5042089;28;20432;-68
2023/07/30 06:31:08;;;;;;;5.07;1.73;;;17.10;95.80;;;;;;5050991;28;20410;-68
2023/07/30 06:33:35;;;;;;;4.00;1.60;;;17.10;95.70;;;;;;5055303;28;20425;-68
2023/07/30 06:36:02;;;;;;;3.40;1.80;;;17.10;95.60;;;;;;5051033;28;20449;-68
2023/07/30 06:38:29;;;;;;;3.10;1.70;;;17.10;95.70;;;;;;5053677;28;20426;-68
2023/07/30 06:40:57;;;;;;;4.97;1.60;;;17.20;95.80;;;;;;5049861;28;20425;-68
2023/07/30 06:43:24;;;;;;;3.22;1.50;;;17.20;95.50;;;;;;5050270;28;20895;-69
2023/07/30 06:45:52;;;;;;;3.63;1.60;;;17.20;95.60;;;;;;5052262;28;20436;-68
2023/07/30 06:48:19;;;;;;;4.28;1.75;;;17.20;95.50;;;;;;5056102;28;20802;-68
2023/07/30 06:50:46;;;;;;;2.95;1.15;;;17.20;95.10;;;;;;5050978;28;20421;-68
2023/07/30 06:53:12;;;;;;;3.33;1.50;;;17.20;95.10;;;;;;5050967;28;20428;-68
2023/07/30 06:55:39;;;;;;;2.90;1.33;;;17.10;95.30;;;;;;5050740;28;20413;-68
2023/07/30 06:58:06;;;;;;;2.63;1.25;;;17.10;95.00;;;;;;5050898;28;20428;-68
2023/07/30 07:00:33;;;;;;;4.57;2.13;;;17.10;94.80;;;;;;5048692;28;20429;-68
2023/07/30 07:03:01;;;;;;;3.42;1.52;;;17.10;94.80;;;;;;5050739;28;20409;-68
2023/07/30 07:05:28;;;;;;;3.40;1.27;;;17.10;94.60;;;;;;5050136;28;20886;-68
2023/07/30 07:07:55;;;;;;;3.30;1.50;;;17.10;94.00;;;;;;5050685;28;20424;-68
2023/07/30 07:10:21;;;;;;;6.18;1.70;;;17.10;94.10;;;;;;5049694;28;20508;-68
2023/07/30 07:12:48;;;;;;;3.15;1.20;;;17.10;94.20;;;;;;5048295;28;20433;-68
2023/07/30 07:15:15;;;;;;;4.35;1.40;;;17.20;93.40;;;;;;5050650;28;20417;-68
2023/07/30 07:17:41;;;;;;;5.53;2.72;;;17.30;92.70;;;;;;5037706;28;20867;-68
2023/07/30 07:20:11;;;;;;;3.85;2.03;;;17.30;93.40;;;;;;5049863;28;20417;-68
2023/07/30 07:22:38;;;;;;;2.73;1.30;;;17.30;93.20;;;;;;5049605;28;20858;-68
2023/07/30 07:25:05;;;;;;;3.10;1.42;;;17.30;93.30;;;;;;5050052;28;20425;-67
2023/07/30 07:27:32;;;;;;;3.20;1.20;;;17.50;93.00;;;;;;5040361;28;20715;-68
2023/07/30 07:29:59;;;;;;;2.95;1.25;;;17.50;92.60;;;;;;5048796;28;20429;-68
2023/07/30 07:32:26;;;;;;;3.97;1.20;;;17.60;92.60;;;;;;5050392;28;20428;-68
2023/07/30 07:34:52;;;;;;;4.45;1.60;;;17.60;92.00;;;;;;5051335;28;20484;-69
2023/07/30 07:37:20;;;;;;;3.80;1.40;;;17.70;92.20;;;;;;5050469;28;20429;-69
2023/07/30 07:39:47;;;;;;;3.13;1.40;;;17.70;92.10;;;;;;5049660;28;20827;-68
2023/07/30 07:42:14;;;;;;;2.97;1.45;;;17.70;92.40;;;;;;5048810;28;20441;-68
2023/07/30 07:44:43;;;;;;;3.50;1.50;;;17.80;92.30;;;;;;5049271;28;20428;-68
2023/07/30 07:47:10;;;;;;;3.40;1.50;;;17.90;92.10;;;;;;5049240;28;20505;-68
2023/07/30 07:49:37;;;;;;;3.43;2.07;;;17.90;92.20;;;;;;5048264;28;20472;-68
2023/07/30 07:52:04;;;;;;;5.50;1.70;;;17.90;91.90;;;;;;5049314;28;20436;-68
2023/07/30 07:54:32;;;;;;;4.28;1.60;;;17.80;92.60;;;;;;5048978;28;20421;-68
2023/07/30 07:56:59;;;;;;;4.55;1.70;;;17.80;92.30;;;;;;5049912;28;20445;-68
2023/07/30 07:59:27;;;;;;;4.32;1.90;;;17.90;92.70;;;;;;5048624;28;20436;-68
2023/07/30 08:01:54;;;;;;;5.22;2.00;;;17.90;92.30;;;;;;5049081;28;20524;-67
2023/07/30 08:04:21;;;;;;;4.60;1.80;;;17.90;92.10;;;;;;5046540;28;20417;-68
2023/07/30 08:06:48;;;;;;;4.80;2.20;;;17.90;91.80;;;;;;5047941;28;20461;-68
2023/07/30 08:09:15;;;;;;;4.18;2.00;;;17.90;92.40;;;;;;5048055;28;20465;-68
2023/07/30 08:11:43;;;;;;;5.55;2.40;;;17.90;92.00;;;;;;5049615;28;20777;-68
2023/07/30 08:14:10;;;;;;;5.82;1.88;;;17.90;92.10;;;;;;5047887;28;20429;-68
2023/07/30 08:16:36;;;;;;;5.43;2.00;;;18.00;92.50;;;;;;5046358;28;20436;-68
2023/07/30 08:19:03;;;;;;;6.18;2.08;;;18.10;92.40;;;;;;5049108;28;20433;-68
2023/07/30 08:21:30;;;;;;;4.32;2.00;;;18.20;92.00;;;;;;5052380;28;20415;-68
2023/07/30 08:23:57;;;;;;;5.23;2.10;;;18.30;91.50;;;;;;5049386;28;20517;-68
2023/07/30 08:26:23;;;;;;;6.22;2.05;;;18.30;92.00;;;;;;5047987;28;20927;-68
2023/07/30 08:28:51;;;;;;;4.70;2.30;;;18.40;91.60;;;;;;5047997;28;20430;-67
2023/07/30 08:31:18;;;;;;;4.72;2.38;;;18.40;91.60;;;;;;5048644;28;20425;-69
2023/07/30 08:33:45;;;;;;;5.80;2.60;;;18.40;91.50;;;;;;5041538;28;20409;-69
2023/07/30 08:36:12;;;;;;;6.60;2.55;;;18.40;91.10;;;;;;5048744;28;20417;-69
2023/07/30 08:38:38;;;;;;;4.57;2.00;;;18.30;91.50;;;;;;5047430;28;21006;-69
2023/07/30 08:41:05;;;;;;;5.82;2.40;;;18.30;91.60;;;;;;5046718;28;20438;-70
2023/07/30 08:43:32;;;;;;;6.77;2.60;;;18.10;91.90;;;;;;5049725;28;20437;-69
2023/07/30 08:46:00;;;;;;;5.45;2.60;;;18.00;92.20;;;;;;5047919;28;20433;-69
2023/07/30 08:48:27;;;;;;;7.78;2.70;;;17.90;92.70;;;;;;5048668;28;20424;-69
2023/07/30 08:50:57;;;;;;;8.20;2.92;;;17.90;93.40;;;;;;5048656;28;20436;-69
2023/07/30 08:53:26;;;;;;;6.32;2.30;;;18.00;93.30;;;;;;5048629;28;20432;-69
2023/07/30 08:55:54;;;;;;;5.90;2.97;;;18.20;92.90;;;;;;5047561;28;20432;-68
2023/07/30 08:58:22;;;;;;;8.10;2.80;;;18.50;92.60;;;;;;5053001;28;20429;-69
2023/07/30 09:00:52;;;;;;;7.00;2.80;;;18.90;92.20;;;;;;5047929;28;20942;-67
2023/07/30 09:03:20;;;;;;;6.00;2.70;;;19.20;90.30;;;;;;5048389;28;20497;-67
2023/07/30 09:05:48;;;;;;;5.60;2.05;;;19.50;88.80;;;;;;5043152;28;20441;-67
2023/07/30 09:08:15;;;;;;;7.03;2.33;;;19.60;86.70;;;;;;5046245;28;20512;-68
2023/07/30 09:10:42;;;;;;;4.63;2.00;;;19.70;85.20;;;;;;5046253;28;20433;-67
2023/07/30 09:13:09;;;;;;;6.63;2.40;;;19.70;84.40;;;;;;5047621;28;20904;-67
2023/07/30 09:15:37;;;;;;;5.68;1.80;;;19.70;84.90;;;;;;5047934;28;20414;-68
2023/07/30 09:18:04;;;;;;;4.97;1.80;;;19.80;83.90;;;;;;5048276;28;20413;-69
2023/07/30 09:20:39;;;;;;;5.30;1.80;;;19.90;83.20;;;;;;5051231;28;20456;-67
2023/07/30 09:23:06;;;;;;;4.95;1.70;;;19.90;82.50;;;;;;5047553;28;20869;-68
2023/07/30 09:25:33;;;;;;;5.78;2.10;;;20.00;82.60;;;;;;5046922;28;20460;-67
2023/07/30 09:28:00;;;;;;;4.15;1.70;;;20.10;82.50;;;;;;5050746;28;20413;-67
2023/07/30 09:30:28;;;;;;;6.15;2.40;;;20.20;82.90;;;;;;5048425;28;20432;-69
2023/07/30 09:32:56;;;;;;;4.47;1.70;;;20.20;83.40;;;;;;5044151;28;21048;-69
2023/07/30 09:35:24;;;;;;;4.30;1.70;;;20.20;79.20;;;;;;5049192;28;20425;-68
2023/07/30 09:37:59;;;;;;;4.65;2.40;;;20.10;80.30;;;;;;5048761;28;20444;-67
2023/07/30 09:40:32;;;;;;;4.60;1.80;;;19.90;80.50;;;;;;5049382;28;20481;-68
2023/07/30 09:42:59;;;;;;;3.67;1.90;;;19.80;80.90;;;;;;5048259;28;20417;-69
2023/07/30 09:45:27;;;;;;;4.18;1.90;;;19.90;81.10;;;;;;5046431;28;20915;-69
2023/07/30 09:47:56;;;;;;;5.75;2.28;;;19.90;81.90;;;;;;5055634;28;20444;-69
2023/07/30 09:50:23;;;;;;;4.73;2.30;;;20.20;81.50;;;;;;5052929;28;20425;-69
2023/07/30 09:52:52;;;;;;;5.40;1.63;;;20.60;79.60;;;;;;5050695;28;20426;-69
2023/07/30 09:55:19;;;;;;;4.75;1.73;;;20.90;76.50;;;;;;5060675;28;20422;-69
2023/07/30 09:57:46;;;;;;;4.70;1.70;;;20.90;74.70;;;;;;5049807;28;20433;-69
2023/07/30 10:00:14;;;;;;;4.75;1.58;;;21.00;73.60;;;;;;5053550;28;20886;-69
2023/07/30 10:02:46;;;;;;;4.70;1.63;;;21.00;73.30;;;;;;5054069;28;20425;-68
2023/07/30 10:05:16;;;;;;;4.90;1.75;;;21.00;72.90;;;;;;5054351;28;20487;-68
2023/07/30 10:07:49;;;;;;;4.60;1.42;;;20.90;73.10;;;;;;5053653;28;20421;-70
2023/07/30 10:10:19;;;;;;;4.90;1.85;;;20.70;72.60;;;;;;5051534;28;20475;-68
2023/07/30 10:12:47;;;;;;;4.53;1.95;;;20.60;73.40;;;;;;5050469;28;20424;-68
2023/07/30 10:15:14;;;;;;;4.93;2.10;;;20.70;74.20;;;;;;5054227;28;20906;-69
2023/07/30 10:17:41;;;;;;;5.40;1.70;;;20.70;71.80;;;;;;5054197;28;20424;-69
2023/07/30 10:20:21;;;;;;;4.47;1.75;;;20.70;72.80;;;;;;5053949;28;20416;-68
2023/07/30 10:22:51;;;;;;;4.82;1.90;;;20.60;75.10;;;;;;5060910;28;20859;-68
2023/07/30 10:25:22;;;;;;;4.95;1.85;;;20.60;73.60;;;;;;5054230;28;20413;-68
2023/07/30 10:27:51;;;;;;;4.05;1.80;;;20.50;74.40;;;;;;5051786;28;20433;-68
2023/07/30 10:30:19;;;;;;;4.90;2.00;;;20.40;74.80;;;;;;5051834;28;20781;-68
2023/07/30 10:33:00;;;;;;;3.63;1.60;;;20.40;72.90;;;;;;5046140;28;20988;-68
2023/07/30 10:35:39;;;;;;;4.60;1.57;;;20.30;75.20;;;;;;5053757;28;20417;-68
2023/07/30 10:38:16;;;;;;;6.32;2.33;;;20.50;73.80;;;;;;5054224;28;20417;-68
2023/07/30 10:41:01;;;;;;;5.70;1.98;;;20.70;73.40;;;;;;5051107;28;20424;-68
2023/07/30 10:43:32;;;;;;;4.68;1.60;;;21.20;70.70;;;;;;5051553;28;20781;-69
2023/07/30 10:45:58;;;;;;;3.85;1.42;;;21.60;64.90;;;;;;5053512;28;20432;-69
2023/07/30 10:48:33;;;;;;;3.58;1.48;;;21.80;66.20;;;;;;5054615;28;20417;-69
2023/07/30 10:51:03;;;;;;;3.80;1.73;;;22.00;64.80;;;;;;5057796;28;20457;-69
2023/07/30 10:53:30;;;;;;;3.63;1.50;;;22.10;63.70;;;;;;5051990;28;20425;-69
2023/07/30 10:56:02;;;;;;;3.85;1.48;;;22.40;63.10;;;;;;5047233;28;20876;-68
2023/07/30 10:58:30;;;;;;;4.25;1.70;;;22.60;62.10;;;;;;5052893;28;20436;-69
2023/07/30 11:00:57;;;;;;;4.20;1.50;;;22.50;62.10;;;;;;5053051;28;20886;-69
2023/07/30 11:03:26;;;;;;;3.15;1.00;;;22.40;63.60;;;;;;5049955;28;20914;-68
2023/07/30 11:05:53;;;;;;;4.10;1.40;;;22.40;62.90;;;;;;5048349;28;20461;-68
2023/07/30 11:08:22;;;;;;;3.65;1.20;;;22.40;61.80;;;;;;5049829;28;20846;-68
2023/07/30 11:10:49;;;;;;;3.10;1.38;;;22.40;63.30;;;;;;5049906;28;20432;-68
2023/07/30 11:13:17;;;;;;;3.10;1.40;;;22.50;61.70;;;;;;5049805;28;20433;-68
2023/07/30 11:15:44;;;;;;;4.20;1.30;;;22.50;62.30;;;;;;5050917;28;20420;-68
2023/07/30 11:18:13;;;;;;;4.38;1.35;;;22.50;63.80;;;;;;5056325;28;20426;-68
2023/07/30 11:20:40;;;;;;;3.95;1.33;;;22.50;60.80;;;;;;5049849;28;20420;-68
2023/07/30 11:23:20;;;;;;;4.05;1.58;;;22.50;62.10;;;;;;5052859;28;20807;-68
2023/07/30 11:25:49;;;;;;;3.50;1.20;;;22.50;58.00;;;;;;5050749;28;20408;-68
2023/07/30 11:28:29;;;;;;;3.97;1.40;;;22.60;59.40;;;;;;5050944;28;20433;-68
2023/07/30 11:30:56;;;;;;;2.13;1.00;;;22.60;56.80;;;;;;5050073;28;20504;-69
2023/07/30 11:33:23;;;;;;;2.88;1.20;;;22.60;57.60;;;;;;5050226;28;20413;-69
2023/07/30 11:35:50;;;;;;;3.65;1.02;;;22.50;58.00;;;;;;5050801;28;20429;-69
2023/07/30 11:38:19;;;;;;;3.67;1.50;;;22.40;57.60;;;;;;5047680;28;20429;-69
2023/07/30 11:40:46;;;;;;;2.45;1.10;;;22.40;57.30;;;;;;5049521;28;20433;-69
2023/07/30 11:43:13;;;;;;;3.00;1.30;;;22.30;59.10;;;;;;5049555;28;20457;-67
2023/07/30 11:45:41;;;;;;;3.50;1.10;;;22.20;57.60;;;;;;5062813;22;20437;-69
2023/07/30 11:48:10;;;;;;;2.80;1.08;;;22.10;58.70;;;;;;5049643;28;20414;-70
2023/07/30 11:50:46;;;;;;;4.17;1.23;;;22.00;58.80;;;;;;5050490;28;20518;-69
2023/07/30 11:53:14;;;;;;;3.40;1.30;;;21.90;58.20;;;;;;5050883;28;20440;-69
2023/07/30 11:55:42;;;;;;;3.37;1.20;;;21.90;60.80;;;;;;5051815;28;20429;-69
2023/07/30 11:58:10;;;;;;;3.72;1.20;;;22.10;59.40;;;;;;5061205;28;20429;-69
2023/07/30 12:00:37;;;;;;;3.53;1.05;;;22.20;56.90;;;;;;5048418;28;20547;-68
2023/07/30 12:03:08;;;;;;;2.97;1.50;;;22.10;57.60;;;;;;5052827;28;20885;-69
2023/07/30 12:05:35;;;;;;;3.53;1.20;;;22.00;59.20;;;;;;5057249;28;20459;-67
2023/07/30 12:08:03;;;;;;;3.80;1.20;;;22.00;57.50;;;;;;5060596;28;20415;-70
2023/07/30 12:10:43;;;;;;;3.13;1.10;;;21.90;58.70;;;;;;5062043;28;20427;-68
2023/07/30 12:13:13;;;;;;;3.70;1.48;;;21.70;59.70;;;;;;5052835;28;20409;-68
2023/07/30 12:15:41;;;;;;;2.70;1.17;;;21.50;60.60;;;;;;5050557;28;20899;-69
2023/07/30 12:18:09;;;;;;;3.10;1.30;;;21.40;62.00;;;;;;5050931;28;20484;-71
2023/07/30 12:20:36;;;;;;;2.70;1.20;;;21.30;64.00;;;;;;5049980;28;20510;-68
2023/07/30 12:23:03;;;;;;;3.08;1.30;;;21.30;63.50;;;;;;5061995;28;20460;-68
2023/07/30 12:25:30;;;;;;;4.32;1.73;;;21.40;63.20;;;;;;5050595;28;20787;-70
2023/07/30 12:27:57;;;;;;;3.83;1.33;;;21.40;63.00;;;;;;5050114;28;20791;-68
2023/07/30 12:30:26;;;;;;;3.28;1.30;;;21.50;62.80;;;;;;5050632;28;20429;-70
2023/07/30 12:32:52;;;;;;;5.60;1.45;;;21.60;63.30;;;;;;5055122;28;20788;-69
2023/07/30 12:35:20;;;;;;;5.47;1.40;;;21.60;65.30;;;;;;5050029;28;20428;-69
2023/07/30 12:37:47;;;;;;;5.03;1.60;;;21.60;67.20;;;;;;5049105;28;20954;-69
2023/07/30 12:40:14;;;;;;;4.72;1.35;;;21.70;68.90;;;;;;5049411;28;20433;-69
2023/07/30 12:42:41;;;;;;;3.50;1.27;;;22.00;69.20;;;;;;5054245;28;20436;-69
2023/07/30 12:45:08;;;;;;;4.93;1.40;;;22.50;69.50;;;;;;5052041;28;20456;-70
2023/07/30 12:47:36;;;;;;;4.97;1.33;;;23.20;66.50;;;;;;5059467;28;20462;-75
2023/07/30 12:50:03;;;;;;;4.55;1.40;;;23.80;61.40;;;;;;5057483;28;20433;-69